Airfield :
LOGIN :

Register | Disclaimer

   EN    FR    IT 

 










Legend :    VFR   Marginal VFR   IFR   Intensive IFR   Very Intensive IFR
Visi :
Ceiling :
>= 8 km
>= 3000ft
5 to 8 km
1000 to 3000 ft
1500m to 5 km
500 to 1000 ft
800 to 1500m
200 to 500 ft
< 800m
< 200 ft
Symbols :   Thunderstorms  Fog  Heavy snow  Heavy precipitations  Wind > 20 kt
SIGMETs :     Misc.  Thunderstorms  Icing  Turbulence  Mountain Waves  Volcanic Ashes







- Airport Elevation : 1325 ft
- IATA code : EBU
- Download approach charts


LFMH - St-Etienne Boutheon

CURRENT METAR :
  • 191300Z AUTO VRB02KT 9999 FEW029 09/02 Q1016 NOSIG

EXPIRED METARs :
  • 191230Z AUTO VRB03KT 9999 FEW052 09/03 Q1016 NOSIG
  • 191200Z AUTO VRB02KT 9999 FEW044 BKN052 07/03 Q1017 NOSIG
  • 191130Z AUTO 20005KT 170V240 CAVOK 07/03 Q1017 NOSIG
  • 191100Z AUTO 16004KT 9999 FEW039 SCT066 06/04 Q1017 NOSIG
  • 191030Z AUTO 11002KT 9999 -RA FEW025 BKN038 BKN049 05/03 Q1017 NOSIG

TAF TAF LFMH
Valid from the 19 at 09:00 until the 20 at 09:00 UTC


190800Z 1909/2009 VRB03KT 9999 BKN028
BECMG 1910/1912 30008KT SCT024 SCT040
BECMG 1921/1924 16005KT BKN016
TEMPO 2000/2003 BKN012
BECMG 2006/2009 17010KT OVC055
ATIS : +33 4 77 36 17 51
No reported NOTAMs for that airfield.
2 SIGMETs reported for the Marseille FIR (LFMM) :
 
Severe turbulence
LFMM SIGMET 6 VALID 191100/191500 LFPW
LFMM MARSEILLE FIR/UIR SEV TURB FCST WI N4330 E00900 - N4315 E00945 - N4245 E00945 - N4230 E00800 - N4315 E00715 - N4330 E00900 SFC/FL040 STNR NC=
Severe mountain waves
LFMM SIGMET 5 VALID 191100/191500 LFPW
LFMM MARSEILLE FIR/UIR SEV MTW FCST E OF E00900 SFC/FL250 STNR NC=



MET'MAP, your aeronautical weather chart ! - Copyright ORBIFLY December 2007 - Disclaimer

ORBIFLY MET'MAP TEAM :

Programming & Development : Alexandra Zaïnal
Concept & Development : Baudouin d'Aumeries
Co-Development & Prog : Marc-Olivier Méhu
Technical & hardware support : Manuel Goepfert

Contact : metmap@orbifly.com




SOURCES & CREDITS :

   NOAA